createdAt,value
2019-03-16T00:01:34.919Z,7.43
2019-03-16T00:04:08.891Z,6.43
2019-03-16T00:06:43.168Z,7.83
2019-03-16T00:09:17.012Z,8.70
2019-03-16T00:11:51.615Z,8.73
2019-03-16T00:14:25.531Z,6.93
2019-03-16T00:16:59.458Z,6.37
2019-03-16T00:19:33.366Z,8.20
2019-03-16T00:22:07.743Z,6.20
2019-03-16T00:24:42.110Z,6.13
2019-03-16T00:27:16.373Z,8.83
2019-03-16T00:29:50.154Z,7.27
2019-03-16T00:32:24.190Z,6.33
2019-03-16T00:34:57.839Z,5.20
2019-03-16T00:37:31.892Z,4.83
2019-03-16T00:40:05.488Z,4.80
2019-03-16T00:42:38.903Z,4.63
2019-03-16T00:45:12.659Z,6.00
2019-03-16T00:47:46.575Z,5.03
2019-03-16T00:50:22.832Z,5.07
2019-03-16T00:52:56.293Z,5.87
2019-03-16T00:55:30.327Z,5.43
2019-03-16T00:58:03.809Z,5.53
2019-03-16T01:00:38.410Z,5.50
2019-03-16T01:03:12.184Z,6.03
2019-03-16T01:05:47.086Z,5.93
2019-03-16T01:08:20.505Z,5.27
2019-03-16T01:10:54.859Z,5.53
2019-03-16T01:13:28.302Z,5.60
2019-03-16T01:16:02.534Z,4.57
2019-03-16T01:18:36.241Z,4.70
2019-03-16T01:21:09.916Z,5.00
2019-03-16T01:23:43.585Z,5.27
2019-03-16T01:26:17.394Z,4.80
2019-03-16T01:28:50.882Z,4.47
2019-03-16T01:31:24.710Z,5.37
2019-03-16T01:33:58.421Z,4.90
2019-03-16T01:36:32.244Z,4.77
2019-03-16T01:39:06.591Z,4.10
2019-03-16T01:41:40.776Z,4.50
2019-03-16T01:44:14.171Z,4.77
2019-03-16T01:46:48.141Z,4.90
2019-03-16T01:49:21.601Z,4.20
2019-03-16T01:51:59.109Z,4.60
2019-03-16T01:54:32.568Z,4.67
2019-03-16T01:57:06.461Z,7.03
2019-03-16T01:59:40.412Z,5.23
2019-03-16T02:02:14.105Z,4.47
2019-03-16T02:04:47.813Z,5.20
2019-03-16T02:07:22.416Z,4.10
2019-03-16T02:09:55.860Z,4.50
2019-03-16T02:12:29.677Z,4.00
2019-03-16T02:15:02.724Z,4.63
2019-03-16T02:17:36.570Z,4.47
2019-03-16T02:20:10.703Z,4.07
2019-03-16T02:22:45.318Z,5.80
2019-03-16T02:25:18.709Z,5.00
2019-03-16T02:27:52.538Z,4.70
2019-03-16T02:30:25.909Z,4.10
2019-03-16T02:33:11.574Z,5.00
2019-03-16T02:35:34.789Z,5.50
2019-03-16T02:38:09.261Z,4.37
2019-03-16T02:40:42.611Z,4.40
2019-03-16T02:43:16.221Z,4.40
2019-03-16T02:45:49.580Z,3.83
2019-03-16T02:48:25.371Z,5.17
2019-03-16T02:50:59.292Z,4.30
2019-03-16T02:53:35.818Z,4.30
2019-03-16T02:56:09.915Z,4.67
2019-03-16T02:58:43.565Z,3.80
2019-03-16T03:01:16.973Z,4.00
2019-03-16T03:03:51.000Z,4.90
2019-03-16T03:06:25.081Z,3.77
2019-03-16T03:08:58.918Z,4.87
2019-03-16T03:11:32.766Z,5.03
2019-03-16T03:14:06.654Z,4.50
2019-03-16T03:16:40.268Z,4.90
2019-03-16T03:19:14.027Z,4.10
2019-03-16T03:21:47.411Z,4.60
2019-03-16T03:24:21.203Z,4.10
2019-03-16T03:26:55.103Z,4.47
2019-03-16T03:29:28.697Z,3.80
2019-03-16T03:32:02.752Z,4.33
2019-03-16T03:34:36.445Z,3.50
2019-03-16T03:37:09.335Z,4.30
2019-03-16T03:39:44.223Z,3.90
2019-03-16T03:42:18.540Z,3.37
2019-03-16T03:44:52.197Z,3.77
2019-03-16T03:47:25.663Z,4.27
2019-03-16T03:49:59.614Z,4.13
2019-03-16T03:52:33.195Z,3.53
2019-03-16T03:55:10.476Z,3.90
2019-03-16T03:57:44.227Z,3.47
2019-03-16T04:00:18.207Z,3.40
2019-03-16T04:02:51.787Z,4.37
2019-03-16T04:05:25.909Z,6.87
2019-03-16T04:07:59.894Z,7.00
2019-03-16T04:10:34.098Z,5.77
2019-03-16T04:13:08.003Z,5.80
2019-03-16T04:15:41.737Z,4.87
2019-03-16T04:18:15.203Z,4.07
2019-03-16T04:20:50.472Z,5.27
2019-03-16T04:23:24.278Z,5.67
2019-03-16T04:25:58.754Z,5.33
2019-03-16T04:28:32.138Z,3.83
2019-03-16T04:31:06.498Z,3.90
2019-03-16T04:33:40.057Z,4.10
2019-03-16T04:36:14.183Z,6.77
2019-03-16T04:38:48.044Z,4.60
2019-03-16T04:41:22.206Z,4.67
2019-03-16T04:43:55.753Z,3.80
2019-03-16T04:46:31.429Z,5.73
2019-03-16T04:49:04.769Z,5.93
2019-03-16T04:51:38.526Z,4.43
2019-03-16T04:54:11.851Z,4.67
2019-03-16T04:56:49.616Z,5.40
2019-03-16T04:59:23.108Z,4.87
2019-03-16T05:01:56.961Z,4.80
2019-03-16T05:04:41.862Z,5.20
2019-03-16T05:07:06.673Z,6.13
2019-03-16T05:09:41.072Z,6.70
2019-03-16T05:12:15.872Z,5.73
2019-03-16T05:14:49.396Z,5.30
2019-03-16T05:17:23.385Z,4.73
2019-03-16T05:19:56.854Z,5.13
2019-03-16T05:22:30.670Z,5.00
2019-03-16T05:25:04.288Z,5.10
2019-03-16T05:27:37.961Z,4.07
2019-03-16T05:30:12.676Z,4.77
2019-03-16T05:32:46.553Z,4.63
2019-03-16T05:35:20.697Z,4.73
2019-03-16T05:37:54.565Z,4.77
2019-03-16T05:40:29.439Z,4.30
2019-03-16T05:43:03.636Z,6.00
2019-03-16T05:45:37.192Z,5.83
2019-03-16T05:48:11.722Z,7.13
2019-03-16T05:50:45.126Z,5.70
2019-03-16T05:53:19.057Z,5.43
2019-03-16T05:55:53.563Z,6.60
2019-03-16T05:58:30.359Z,5.60
2019-03-16T06:01:04.131Z,5.67
2019-03-16T06:03:38.316Z,6.07
2019-03-16T06:06:11.747Z,6.57
2019-03-16T06:08:45.745Z,6.67
2019-03-16T06:11:19.518Z,6.80
2019-03-16T06:13:57.320Z,7.53
2019-03-16T06:16:30.829Z,6.90
2019-03-16T06:19:04.709Z,6.93
2019-03-16T06:21:38.548Z,7.30
2019-03-16T06:24:12.547Z,7.60
2019-03-16T06:26:46.785Z,7.70
2019-03-16T06:29:20.688Z,11.33
2019-03-16T06:31:54.542Z,6.77
2019-03-16T06:34:28.423Z,10.47
2019-03-16T06:37:01.955Z,9.50
2019-03-16T06:39:36.376Z,12.93
2019-03-16T06:42:10.181Z,8.37
2019-03-16T06:44:44.430Z,11.10
2019-03-16T06:47:18.074Z,10.57
2019-03-16T06:49:52.135Z,10.97
2019-03-16T06:52:25.595Z,10.07
2019-03-16T06:54:59.581Z,7.67
2019-03-16T06:57:33.787Z,10.33
2019-03-16T07:00:12.239Z,8.13
2019-03-16T07:02:45.974Z,8.10
2019-03-16T07:05:23.468Z,8.07
2019-03-16T07:07:55.794Z,11.37
2019-03-16T07:10:29.925Z,8.63
2019-03-16T07:13:03.796Z,8.47
2019-03-16T07:15:38.314Z,13.63
2019-03-16T07:18:11.889Z,11.23
2019-03-16T07:21:01.976Z,7.63
2019-03-16T07:23:35.947Z,7.23
2019-03-16T07:26:15.153Z,7.97
2019-03-16T07:28:45.689Z,9.00
2019-03-16T07:31:20.203Z,8.63
2019-03-16T07:33:54.028Z,8.10
2019-03-16T07:36:28.097Z,10.93
2019-03-16T07:39:02.790Z,10.83
2019-03-16T07:41:37.103Z,8.60
2019-03-16T07:44:12.731Z,25.10
2019-03-16T07:46:47.406Z,11.53
2019-03-16T07:49:21.017Z,9.80
2019-03-16T07:51:55.815Z,13.60
2019-03-16T07:54:31.229Z,12.37
2019-03-16T07:57:04.950Z,10.17
2019-03-16T07:59:39.956Z,8.90
2019-03-16T08:02:14.510Z,9.13
2019-03-16T08:04:48.178Z,11.83
2019-03-16T08:07:22.420Z,10.77
2019-03-16T08:09:56.369Z,7.30
2019-03-16T08:12:32.577Z,7.30
2019-03-16T08:15:06.728Z,8.73
2019-03-16T08:17:41.311Z,11.13
2019-03-16T08:20:15.578Z,9.33
2019-03-16T08:22:49.606Z,8.70
2019-03-16T08:25:23.182Z,7.70
2019-03-16T08:27:57.698Z,10.37
2019-03-16T08:30:32.495Z,8.90
2019-03-16T08:33:06.595Z,8.40
2019-03-16T08:35:40.739Z,11.40
2019-03-16T08:38:14.722Z,8.47
2019-03-16T08:40:53.198Z,8.43
2019-03-16T08:43:27.035Z,8.10
2019-03-16T08:46:00.789Z,7.37
2019-03-16T08:48:34.875Z,8.93
2019-03-16T08:51:08.936Z,7.90
2019-03-16T08:53:43.486Z,10.17
2019-03-16T08:56:17.132Z,9.37
2019-03-16T08:58:51.460Z,7.37
2019-03-16T09:01:25.570Z,6.50
2019-03-16T09:04:01.294Z,5.80
2019-03-16T09:06:37.197Z,7.13
2019-03-16T09:09:12.661Z,5.83
2019-03-16T09:11:46.061Z,10.20
2019-03-16T09:14:20.675Z,5.83
2019-03-16T09:16:54.295Z,8.90
2019-03-16T09:19:28.631Z,6.77
2019-03-16T09:22:02.863Z,6.30
2019-03-16T09:24:37.173Z,3.90
2019-03-16T09:27:10.167Z,4.70
2019-03-16T09:29:44.526Z,3.43
2019-03-16T09:32:19.914Z,5.50
2019-03-16T09:34:54.598Z,3.23
2019-03-16T09:37:28.649Z,5.40
2019-03-16T09:40:07.093Z,4.57
2019-03-16T09:42:41.655Z,5.07
2019-03-16T09:45:15.968Z,3.60
2019-03-16T09:47:51.813Z,3.90
2019-03-16T09:50:26.458Z,4.00
2019-03-16T09:53:00.802Z,4.70
2019-03-16T09:55:37.642Z,4.77
2019-03-16T09:58:12.370Z,2.37
2019-03-16T10:01:01.408Z,26.77
2019-03-16T10:03:36.577Z,4.80
2019-03-16T10:06:15.655Z,5.67
2019-03-16T10:08:57.695Z,4.03
2019-03-16T10:11:32.045Z,4.50
2019-03-16T10:14:16.121Z,5.27
2019-03-16T10:16:51.318Z,2.10
2019-03-16T10:19:28.927Z,3.27
2019-03-16T10:22:07.343Z,6.50
2019-03-16T10:24:41.625Z,3.80
2019-03-16T10:27:26.963Z,3.70
2019-03-16T10:29:59.820Z,3.30
2019-03-16T10:32:40.503Z,2.83
2019-03-16T10:35:16.528Z,3.50
2019-03-16T10:37:51.477Z,2.90
2019-03-16T10:40:26.509Z,2.17
2019-03-16T10:43:03.160Z,2.50
2019-03-16T10:45:37.763Z,2.90
2019-03-16T10:48:14.834Z,2.50
2019-03-16T10:50:51.739Z,2.23
2019-03-16T10:53:30.046Z,2.20
2019-03-16T10:56:08.309Z,2.27
2019-03-16T10:58:55.676Z,6.20
2019-03-16T11:01:20.868Z,4.07
2019-03-16T11:03:55.254Z,3.97
2019-03-16T11:06:33.160Z,2.97
2019-03-16T11:09:10.307Z,1.90
2019-03-16T11:11:44.685Z,1.93
2019-03-16T11:14:18.669Z,2.00
2019-03-16T11:16:58.191Z,1.73
2019-03-16T11:19:33.105Z,2.07
2019-03-16T11:22:07.813Z,2.67
2019-03-16T11:24:44.189Z,1.87
2019-03-16T11:27:17.909Z,2.30
2019-03-16T11:29:56.613Z,3.30
2019-03-16T11:32:32.658Z,2.47
2019-03-16T11:35:08.317Z,3.10
2019-03-16T11:37:45.523Z,2.57
2019-03-16T11:40:22.477Z,3.03
2019-03-16T11:42:59.911Z,2.90
2019-03-16T11:45:35.622Z,2.70
2019-03-16T11:48:15.923Z,3.30
2019-03-16T11:50:51.429Z,2.87
2019-03-16T11:53:31.903Z,3.07
2019-03-16T11:56:17.331Z,2.40
2019-03-16T11:58:48.034Z,2.20
2019-03-16T12:01:28.168Z,3.77
2019-03-16T12:04:02.746Z,4.13
2019-03-16T12:06:39.478Z,3.60
2019-03-16T12:09:17.571Z,3.30
2019-03-16T12:11:55.053Z,3.23
2019-03-16T12:14:40.038Z,5.07
2019-03-16T12:17:18.628Z,3.83
2019-03-16T12:19:53.389Z,3.33
2019-03-16T12:22:32.716Z,3.97
2019-03-16T12:25:13.221Z,4.73
2019-03-16T12:27:55.506Z,4.60
2019-03-16T12:30:30.529Z,5.17
2019-03-16T12:33:14.135Z,4.00
2019-03-16T12:35:48.613Z,4.90
2019-03-16T12:38:28.116Z,3.30
2019-03-16T12:41:05.091Z,3.13
2019-03-16T12:43:41.193Z,3.37
2019-03-16T12:46:16.338Z,5.63
2019-03-16T12:48:57.551Z,4.17
2019-03-16T12:51:33.986Z,9.60
2019-03-16T12:54:11.307Z,4.93
2019-03-16T12:56:46.833Z,5.80
2019-03-16T12:59:23.420Z,4.40
2019-03-16T13:01:57.510Z,4.77
2019-03-16T13:04:33.745Z,3.40
2019-03-16T13:07:10.858Z,3.83
2019-03-16T13:09:48.501Z,3.53
2019-03-16T13:12:25.194Z,5.50
2019-03-16T13:15:02.565Z,3.00
2019-03-16T13:17:36.967Z,5.93
2019-03-16T13:20:12.543Z,3.23
2019-03-16T13:22:50.824Z,3.20
2019-03-16T13:25:28.213Z,2.60
2019-03-16T13:28:10.571Z,3.47
2019-03-16T13:30:50.987Z,4.93
2019-03-16T13:33:26.696Z,2.67
2019-03-16T13:36:10.867Z,2.10
2019-03-16T13:38:49.725Z,2.13
2019-03-16T13:41:25.821Z,2.90
2019-03-16T13:44:06.671Z,3.53
2019-03-16T13:46:48.044Z,2.37
2019-03-16T13:49:24.438Z,3.27
2019-03-16T13:51:59.443Z,2.17
2019-03-16T13:54:35.983Z,2.60
2019-03-16T13:57:12.176Z,2.67
2019-03-16T13:59:46.538Z,2.57
2019-03-16T14:02:20.567Z,2.30
2019-03-16T14:04:54.949Z,2.50
2019-03-16T14:07:31.067Z,2.33
2019-03-16T14:10:06.205Z,2.13
2019-03-16T14:12:42.062Z,2.30
2019-03-16T14:15:17.884Z,4.47
2019-03-16T14:17:52.361Z,3.17
2019-03-16T14:20:26.740Z,2.83
2019-03-16T14:23:01.732Z,3.00
2019-03-16T14:25:36.420Z,3.07
2019-03-16T14:28:10.763Z,3.10
2019-03-16T14:30:45.621Z,4.53
2019-03-16T14:33:21.241Z,3.33
2019-03-16T14:35:56.000Z,9.60
2019-03-16T14:38:31.418Z,3.90
2019-03-16T14:41:07.966Z,3.80
2019-03-16T14:43:42.762Z,3.77
2019-03-16T14:46:16.494Z,3.53
2019-03-16T14:48:51.541Z,3.63
2019-03-16T14:51:26.468Z,3.37
2019-03-16T14:54:01.385Z,3.03
2019-03-16T14:56:35.272Z,3.93
2019-03-16T14:59:09.499Z,6.63
2019-03-16T15:01:43.685Z,3.13
2019-03-16T15:04:18.100Z,3.60
2019-03-16T15:06:52.866Z,5.83
2019-03-16T15:09:27.693Z,3.87
2019-03-16T15:12:01.513Z,4.27
2019-03-16T15:14:40.673Z,3.83
2019-03-16T15:17:15.405Z,3.50
2019-03-16T15:19:49.818Z,3.93
2019-03-16T15:22:30.276Z,3.13
2019-03-16T15:25:04.464Z,3.20
2019-03-16T15:27:38.231Z,3.10
2019-03-16T15:30:14.901Z,3.30
2019-03-16T15:32:52.869Z,3.57
2019-03-16T15:35:26.903Z,3.57
2019-03-16T15:38:01.282Z,4.17
2019-03-16T15:40:38.182Z,9.40
2019-03-16T15:43:11.743Z,4.20
2019-03-16T15:45:47.148Z,4.40
2019-03-16T15:48:21.757Z,5.40
2019-03-16T15:50:55.683Z,4.17
2019-03-16T15:53:30.460Z,4.00
2019-03-16T15:56:06.166Z,3.60
2019-03-16T15:58:39.791Z,4.43
2019-03-16T16:01:14.646Z,3.90
2019-03-16T16:03:48.931Z,3.97
2019-03-16T16:06:23.425Z,6.90
2019-03-16T16:09:03.939Z,5.80
2019-03-16T16:11:39.070Z,6.00
2019-03-16T16:14:13.116Z,6.10
2019-03-16T16:16:47.190Z,5.10
2019-03-16T16:19:21.941Z,4.90
2019-03-16T16:21:57.623Z,4.67
2019-03-16T16:24:31.399Z,4.50
2019-03-16T16:27:17.268Z,5.10
2019-03-16T16:29:56.942Z,4.87
2019-03-16T16:32:31.850Z,5.40
2019-03-16T16:35:06.700Z,6.73
2019-03-16T16:37:40.802Z,6.50
2019-03-16T16:40:15.722Z,5.90
2019-03-16T16:42:52.914Z,6.17
2019-03-16T16:45:27.426Z,11.37
2019-03-16T16:48:03.293Z,9.73
2019-03-16T16:50:37.708Z,8.20
2019-03-16T16:53:12.081Z,8.10
2019-03-16T16:55:47.107Z,8.63
2019-03-16T16:58:21.621Z,9.30
2019-03-16T17:00:56.414Z,7.23
2019-03-16T17:03:31.928Z,7.53
2019-03-16T17:06:06.079Z,7.80
2019-03-16T17:08:42.157Z,7.93
2019-03-16T17:11:19.045Z,9.20
2019-03-16T17:13:55.010Z,9.13
2019-03-16T17:16:28.616Z,11.23
2019-03-16T17:19:02.963Z,11.17
2019-03-16T17:21:36.893Z,13.47
2019-03-16T17:24:11.397Z,16.00
2019-03-16T17:26:45.957Z,16.53
2019-03-16T17:29:20.501Z,14.73
2019-03-16T17:31:54.124Z,15.43
2019-03-16T17:34:28.316Z,17.57
2019-03-16T17:37:02.991Z,15.63
2019-03-16T17:39:37.464Z,16.00
2019-03-16T17:42:12.104Z,16.87
2019-03-16T17:44:46.287Z,15.10
2019-03-16T17:47:21.153Z,14.63
2019-03-16T17:49:55.352Z,16.20
2019-03-16T17:52:29.818Z,17.90
2019-03-16T17:55:05.457Z,15.43
2019-03-16T17:57:39.687Z,13.80
2019-03-16T18:00:15.340Z,13.50
2019-03-16T18:02:52.195Z,15.13
2019-03-16T18:05:25.484Z,17.53
2019-03-16T18:07:59.987Z,19.93
2019-03-16T18:10:34.701Z,17.27
2019-03-16T18:13:26.776Z,16.80
2019-03-16T18:16:19.603Z,15.77
2019-03-16T18:19:09.991Z,15.23
2019-03-16T18:21:51.733Z,17.17
2019-03-16T18:24:34.123Z,15.30
2019-03-16T18:27:16.222Z,16.53
2019-03-16T18:30:03.084Z,15.23
2019-03-16T18:32:43.563Z,15.03
2019-03-16T18:35:21.794Z,14.40
2019-03-16T18:38:25.699Z,13.77
2019-03-16T18:41:12.844Z,15.03
2019-03-16T18:43:53.039Z,16.10
2019-03-16T18:46:30.781Z,16.23
2019-03-16T18:49:20.961Z,17.83
2019-03-16T18:52:01.145Z,23.83
2019-03-16T18:54:41.826Z,13.83
2019-03-16T18:57:19.772Z,15.77
2019-03-16T18:59:57.963Z,16.17
2019-03-16T19:02:37.877Z,16.57
2019-03-16T19:05:16.749Z,16.80
2019-03-16T19:07:56.915Z,17.23
2019-03-16T19:10:35.796Z,18.93
2019-03-16T19:13:15.059Z,18.13
2019-03-16T19:16:01.301Z,22.10
2019-03-16T19:18:41.922Z,23.63
2019-03-16T19:21:21.447Z,22.33
2019-03-16T19:24:30.599Z,19.53
2019-03-16T19:27:12.811Z,22.10
2019-03-16T19:29:53.546Z,22.23
2019-03-16T19:32:37.413Z,21.73
2019-03-16T19:35:16.779Z,23.60
2019-03-16T19:37:55.904Z,29.53
2019-03-16T19:40:34.939Z,25.10
2019-03-16T19:43:13.091Z,24.43
2019-03-16T19:46:04.370Z,25.30
2019-03-16T19:48:43.308Z,24.83
2019-03-16T19:51:21.194Z,27.80
2019-03-16T19:54:16.524Z,28.47
2019-03-16T19:57:00.334Z,24.57
2019-03-16T19:59:44.032Z,29.13
2019-03-16T20:02:23.248Z,29.23
2019-03-16T20:05:03.438Z,36.33
2019-03-16T20:07:49.394Z,35.20
2019-03-16T20:10:32.461Z,33.77
2019-03-16T20:13:16.507Z,33.63
2019-03-16T20:15:54.976Z,33.90
2019-03-16T20:18:43.680Z,32.27
2019-03-16T20:21:21.859Z,32.57
2019-03-16T20:24:25.980Z,33.23
2019-03-16T20:27:08.087Z,34.73
2019-03-16T20:29:48.492Z,41.27
2019-03-16T20:32:28.160Z,35.27
2019-03-16T20:35:07.130Z,40.17
2019-03-16T20:37:51.185Z,39.53
2019-03-16T20:40:33.421Z,40.33
2019-03-16T20:43:18.397Z,40.70
2019-03-16T20:45:56.980Z,39.37
2019-03-16T20:48:43.103Z,40.33
2019-03-16T20:51:22.301Z,38.07
2019-03-16T20:54:05.073Z,45.73
2019-03-16T20:56:43.174Z,38.37
2019-03-16T20:59:25.831Z,40.87
2019-03-16T21:02:07.305Z,33.33
2019-03-16T21:04:44.521Z,31.37
2019-03-16T21:07:23.332Z,27.37
2019-03-16T21:10:18.659Z,25.90
2019-03-16T21:13:02.263Z,28.20
2019-03-16T21:16:02.186Z,27.43
2019-03-16T21:18:44.431Z,30.00
2019-03-16T21:21:23.961Z,25.93
2019-03-16T21:24:02.969Z,28.00
2019-03-16T21:26:51.890Z,26.77
2019-03-16T21:29:21.607Z,28.83
2019-03-16T21:32:43.427Z,28.33
2019-03-16T21:35:23.134Z,26.97
2019-03-16T21:38:00.433Z,29.80
2019-03-16T21:40:38.761Z,28.97
2019-03-16T21:43:35.202Z,30.60
2019-03-16T21:46:15.393Z,29.33
2019-03-16T21:48:53.967Z,29.27
2019-03-16T21:51:32.057Z,27.97
2019-03-16T21:54:10.552Z,25.70
2019-03-16T21:57:10.356Z,25.50
2019-03-16T21:59:50.256Z,21.73
2019-03-16T22:02:28.505Z,26.50
2019-03-16T22:05:20.418Z,21.10
2019-03-16T22:07:55.463Z,19.37
2019-03-16T22:10:36.203Z,20.10
2019-03-16T22:13:14.453Z,20.97
2019-03-16T22:15:58.767Z,20.00
2019-03-16T22:18:39.450Z,20.13
2019-03-16T22:21:19.930Z,20.07
2019-03-16T22:23:59.229Z,20.23
2019-03-16T22:26:39.079Z,20.60
2019-03-16T22:29:17.648Z,23.70
2019-03-16T22:32:14.572Z,20.73
2019-03-16T22:34:53.118Z,22.40
2019-03-16T22:37:31.265Z,23.30
2019-03-16T22:40:09.705Z,21.93
2019-03-16T22:42:49.092Z,22.27
2019-03-16T22:45:28.903Z,23.23
2019-03-16T22:48:08.872Z,22.73
2019-03-16T22:50:47.887Z,25.73
2019-03-16T22:53:28.292Z,23.57
2019-03-16T22:56:04.281Z,23.27
2019-03-16T22:58:40.182Z,22.27
2019-03-16T23:01:25.768Z,22.33
2019-03-16T23:04:07.166Z,21.87
2019-03-16T23:06:57.347Z,24.47
2019-03-16T23:09:35.499Z,21.53
2019-03-16T23:12:18.670Z,20.10
2019-03-16T23:14:56.487Z,20.13
2019-03-16T23:17:36.609Z,19.83
2019-03-16T23:20:20.646Z,17.30
2019-03-16T23:22:58.936Z,21.13
2019-03-16T23:25:40.005Z,17.57
2019-03-16T23:28:17.813Z,17.97
2019-03-16T23:30:57.652Z,14.87
2019-03-16T23:33:39.622Z,15.37
2019-03-16T23:36:24.058Z,16.10
2019-03-16T23:39:03.203Z,19.30
2019-03-16T23:41:43.503Z,16.33
2019-03-16T23:44:21.857Z,17.50
2019-03-16T23:47:00.391Z,18.07
2019-03-16T23:49:35.806Z,16.83
2019-03-16T23:52:14.038Z,18.13
2019-03-16T23:54:52.274Z,14.23
2019-03-16T23:57:32.061Z,14.13
